sensor_id;sensor_type;location;lat;lon;timestamp;pressure;altitude;pressure_sealevel;temperature;humidity
35878;BME280;21982;49.804;24.072;2022-12-20T03:08:58;98342.34;;;-0.95;62.06
35878;BME280;21982;49.804;24.072;2022-12-20T03:11:25;98286.81;;;-0.80;60.66
35878;BME280;21982;49.804;24.072;2022-12-20T03:13:50;98340.06;;;-0.02;59.07
35878;BME280;21982;49.804;24.072;2022-12-20T03:16:16;98331.66;;;0.35;57.51
35878;BME280;21982;49.804;24.072;2022-12-20T03:18:42;98326.94;;;0.66;56.38
35878;BME280;21982;49.804;24.072;2022-12-20T03:21:10;98335.09;;;0.87;55.36
35878;BME280;21982;49.804;24.072;2022-12-20T03:23:35;98329.16;;;1.11;54.95
35878;BME280;21982;49.804;24.072;2022-12-20T03:26:02;98347.22;;;1.26;54.01
35878;BME280;21982;49.804;24.072;2022-12-20T03:28:28;98346.63;;;1.36;53.19
35878;BME280;21982;49.804;24.072;2022-12-20T03:30:53;98336.56;;;1.42;53.12
35878;BME280;21982;49.804;24.072;2022-12-20T03:33:19;98331.25;;;1.44;52.96
35878;BME280;21982;49.804;24.072;2022-12-20T03:35:46;98328.72;;;1.55;51.62
35878;BME280;21982;49.804;24.072;2022-12-20T03:38:11;98303.38;;;1.44;51.79
35878;BME280;21982;49.804;24.072;2022-12-20T03:40:37;98326.63;;;1.60;50.72
35878;BME280;21982;49.804;24.072;2022-12-20T03:43:02;98321.41;;;1.60;50.77
35878;BME280;21982;49.804;24.072;2022-12-20T03:45:28;98195.75;;;0.79;51.51
35878;BME280;21982;49.804;24.072;2022-12-20T03:47:53;98313.19;;;1.41;51.27
35878;BME280;21982;49.804;24.072;2022-12-20T03:50:19;98323.00;;;1.50;50.46
35878;BME280;21982;49.804;24.072;2022-12-20T03:52:44;98223.94;;;0.86;51.28
35878;BME280;21982;49.804;24.072;2022-12-20T03:55:09;98320.91;;;1.42;51.14
35878;BME280;21982;49.804;24.072;2022-12-20T03:57:37;98332.38;;;1.40;50.78
35878;BME280;21982;49.804;24.072;2022-12-20T04:00:03;98333.47;;;1.37;50.96
35878;BME280;21982;49.804;24.072;2022-12-20T04:02:28;98305.50;;;1.01;50.87
35878;BME280;21982;49.804;24.072;2022-12-20T04:04:53;98306.94;;;1.05;50.83
35878;BME280;21982;49.804;24.072;2022-12-20T04:07:19;98323.22;;;1.21;50.77
35878;BME280;21982;49.804;24.072;2022-12-20T04:09:44;98280.97;;;0.91;50.38
35878;BME280;21982;49.804;24.072;2022-12-20T04:12:09;98256.16;;;0.85;50.19
35878;BME280;21982;49.804;24.072;2022-12-20T04:14:35;98269.41;;;0.95;50.14
35878;BME280;21982;49.804;24.072;2022-12-20T04:17:01;98323.22;;;1.21;49.94
35878;BME280;21982;49.804;24.072;2022-12-20T04:19:27;98300.91;;;1.17;50.02
35878;BME280;21982;49.804;24.072;2022-12-20T04:21:52;98274.69;;;1.06;49.93
35878;BME280;21982;49.804;24.072;2022-12-20T04:24:20;98227.88;;;0.92;49.71
35878;BME280;21982;49.804;24.072;2022-12-20T04:26:45;98318.84;;;1.22;50.11
35878;BME280;21982;49.804;24.072;2022-12-20T04:29:10;98286.50;;;1.24;49.30
35878;BME280;21982;49.804;24.072;2022-12-20T04:31:36;98214.13;;;0.90;48.94
35878;BME280;21982;49.804;24.072;2022-12-20T04:34:01;98292.09;;;1.44;48.96
35878;BME280;21982;49.804;24.072;2022-12-20T04:36:27;98227.13;;;1.15;48.49
35878;BME280;21982;49.804;24.072;2022-12-20T04:38:52;98273.91;;;1.55;49.09
35878;BME280;21982;49.804;24.072;2022-12-20T04:41:18;98283.94;;;1.61;48.95
35878;BME280;21982;49.804;24.072;2022-12-20T04:43:55;98206.97;;;1.17;48.28
35878;BME280;21982;49.804;24.072;2022-12-20T04:46:22;98285.50;;;1.51;50.21
35878;BME280;21982;49.804;24.072;2022-12-20T04:48:47;98179.28;;;1.04;49.11
35878;BME280;21982;49.804;24.072;2022-12-20T04:51:13;98300.00;;;1.67;48.69
35878;BME280;21982;49.804;24.072;2022-12-20T04:53:38;98289.44;;;1.69;48.34
35878;BME280;21982;49.804;24.072;2022-12-20T04:56:21;98283.28;;;1.70;48.04
35878;BME280;21982;49.804;24.072;2022-12-20T04:58:49;98214.28;;;1.25;48.17
35878;BME280;21982;49.804;24.072;2022-12-20T05:01:16;98253.66;;;1.58;48.19
35878;BME280;21982;49.804;24.072;2022-12-20T05:03:42;98201.34;;;1.23;48.18
35878;BME280;21982;49.804;24.072;2022-12-20T05:06:07;98277.22;;;1.70;48.32
35878;BME280;21982;49.804;24.072;2022-12-20T05:08:33;98194.66;;;1.19;48.34
35878;BME280;21982;49.804;24.072;2022-12-20T05:10:59;98275.88;;;1.64;47.98
35878;BME280;21982;49.804;24.072;2022-12-20T05:13:25;98264.50;;;1.65;47.67
35878;BME280;21982;49.804;24.072;2022-12-20T05:15:52;98267.22;;;1.63;48.42
35878;BME280;21982;49.804;24.072;2022-12-20T05:18:18;98223.97;;;1.36;48.61
35878;BME280;21982;49.804;24.072;2022-12-20T05:20:43;98170.16;;;1.09;48.80
35878;BME280;21982;49.804;24.072;2022-12-20T05:23:09;98259.38;;;1.63;49.00
35878;BME280;21982;49.804;24.072;2022-12-20T05:25:54;98261.16;;;1.63;48.81
35878;BME280;21982;49.804;24.072;2022-12-20T05:28:37;98030.81;;;0.27;48.93
35878;BME280;21982;49.804;24.072;2022-12-20T05:31:03;98260.94;;;1.66;48.32
35878;BME280;21982;49.804;24.072;2022-12-20T05:33:28;98254.69;;;1.68;48.92
35878;BME280;21982;49.804;24.072;2022-12-20T05:35:54;98248.63;;;1.68;48.54
35878;BME280;21982;49.804;24.072;2022-12-20T05:38:20;98251.84;;;1.72;48.74
35878;BME280;21982;49.804;24.072;2022-12-20T05:40:47;98140.63;;;1.09;48.50
35878;BME280;21982;49.804;24.072;2022-12-20T05:43:14;98253.38;;;1.74;48.93
35878;BME280;21982;49.804;24.072;2022-12-20T05:45:40;98118.16;;;0.95;48.69
35878;BME280;21982;49.804;24.072;2022-12-20T05:48:10;98211.47;;;1.52;48.63
35878;BME280;21982;49.804;24.072;2022-12-20T05:50:36;98186.13;;;1.41;48.84
35878;BME280;21982;49.804;24.072;2022-12-20T05:53:01;98246.06;;;1.79;48.53
35878;BME280;21982;49.804;24.072;2022-12-20T05:55:26;98244.38;;;1.78;48.54
35878;BME280;21982;49.804;24.072;2022-12-20T05:57:52;98242.50;;;1.80;48.21
35878;BME280;21982;49.804;24.072;2022-12-20T06:00:18;98245.84;;;1.82;48.90
35878;BME280;21982;49.804;24.072;2022-12-20T06:02:43;98145.63;;;1.24;48.46
35878;BME280;21982;49.804;24.072;2022-12-20T06:05:08;98163.56;;;1.29;48.76
35878;BME280;21982;49.804;24.072;2022-12-20T06:07:34;98249.50;;;1.80;48.69
35878;BME280;21982;49.804;24.072;2022-12-20T06:09:59;98271.94;;;1.82;49.09
35878;BME280;21982;49.804;24.072;2022-12-20T06:12:25;98223.66;;;1.64;49.42
35878;BME280;21982;49.804;24.072;2022-12-20T06:14:52;98182.47;;;1.44;48.98
35878;BME280;21982;49.804;24.072;2022-12-20T06:17:17;98238.31;;;1.78;49.18
35878;BME280;21982;49.804;24.072;2022-12-20T06:19:44;98259.31;;;1.76;49.87
35878;BME280;21982;49.804;24.072;2022-12-20T06:22:09;98168.44;;;1.33;50.04
35878;BME280;21982;49.804;24.072;2022-12-20T06:24:35;98245.69;;;1.73;50.23
35878;BME280;21982;49.804;24.072;2022-12-20T06:27:01;98170.84;;;1.37;50.05
35878;BME280;21982;49.804;24.072;2022-12-20T06:29:28;98235.25;;;1.73;50.54
35878;BME280;21982;49.804;24.072;2022-12-20T06:31:54;98131.44;;;1.16;50.63
35878;BME280;21982;49.804;24.072;2022-12-20T06:34:19;98231.66;;;1.74;50.98
35878;BME280;21982;49.804;24.072;2022-12-20T06:36:45;98146.84;;;1.31;50.80
35878;BME280;21982;49.804;24.072;2022-12-20T06:39:11;98212.94;;;1.56;51.28
35878;BME280;21982;49.804;24.072;2022-12-20T06:41:39;98229.41;;;1.69;52.18
35878;BME280;21982;49.804;24.072;2022-12-20T06:44:05;98206.03;;;1.55;51.63
35878;BME280;21982;49.804;24.072;2022-12-20T06:46:30;98166.81;;;1.44;52.64
35878;BME280;21982;49.804;24.072;2022-12-20T06:48:56;98203.94;;;1.60;52.35
35878;BME280;21982;49.804;24.072;2022-12-20T06:51:21;98221.34;;;1.72;53.03
35878;BME280;21982;49.804;24.072;2022-12-20T06:53:47;98191.13;;;1.57;52.99
35878;BME280;21982;49.804;24.072;2022-12-20T06:56:12;98178.50;;;1.51;53.01
35878;BME280;21982;49.804;24.072;2022-12-20T06:58:37;98219.84;;;1.81;53.00
35878;BME280;21982;49.804;24.072;2022-12-20T07:01:03;98065.94;;;0.84;53.09
35878;BME280;21982;49.804;24.072;2022-12-20T07:03:28;98231.72;;;1.85;53.67
35878;BME280;21982;49.804;24.072;2022-12-20T07:05:54;98210.84;;;1.85;53.33
35878;BME280;21982;49.804;24.072;2022-12-20T07:08:20;98207.47;;;1.72;53.29
35878;BME280;21982;49.804;24.072;2022-12-20T07:10:46;98215.44;;;1.81;53.00
35878;BME280;21982;49.804;24.072;2022-12-20T07:13:11;98195.09;;;1.74;53.32
35878;BME280;21982;49.804;24.072;2022-12-20T07:15:37;98241.72;;;1.67;53.13
35878;BME280;21982;49.804;24.072;2022-12-20T07:18:03;98221.13;;;1.99;53.93
35878;BME280;21982;49.804;24.072;2022-12-20T07:20:29;98174.69;;;1.67;53.22
35878;BME280;21982;49.804;24.072;2022-12-20T07:22:55;98196.22;;;1.58;53.71
35878;BME280;21982;49.804;24.072;2022-12-20T07:25:21;98123.19;;;1.46;53.79
35878;BME280;21982;49.804;24.072;2022-12-20T07:27:49;98223.41;;;2.15;54.00
35878;BME280;21982;49.804;24.072;2022-12-20T07:30:16;98213.91;;;2.14;53.35
35878;BME280;21982;49.804;24.072;2022-12-20T07:32:41;98110.41;;;1.54;54.05
35878;BME280;21982;49.804;24.072;2022-12-20T07:35:08;98043.81;;;1.13;53.94
35878;BME280;21982;49.804;24.072;2022-12-20T07:37:34;98219.75;;;2.17;54.49
35878;BME280;21982;49.804;24.072;2022-12-20T07:40:00;98212.75;;;2.18;54.11
35878;BME280;21982;49.804;24.072;2022-12-20T07:42:25;98183.28;;;2.05;54.04
35878;BME280;21982;49.804;24.072;2022-12-20T07:44:50;98211.34;;;2.25;54.93
35878;BME280;21982;49.804;24.072;2022-12-20T07:47:16;98055.09;;;1.38;54.58
35878;BME280;21982;49.804;24.072;2022-12-20T07:49:41;98175.44;;;2.16;54.72
35878;BME280;21982;49.804;24.072;2022-12-20T07:52:09;98202.72;;;2.35;54.75
35878;BME280;21982;49.804;24.072;2022-12-20T07:54:39;98192.16;;;2.37;55.39
35878;BME280;21982;49.804;24.072;2022-12-20T07:57:14;97950.78;;;0.90;54.91
35878;BME280;21982;49.804;24.072;2022-12-20T07:59:44;98206.41;;;2.44;55.69
35878;BME280;21982;49.804;24.072;2022-12-20T08:02:15;98065.66;;;1.71;55.57
35878;BME280;21982;49.804;24.072;2022-12-20T08:04:41;98195.25;;;2.53;55.87
35878;BME280;21982;49.804;24.072;2022-12-20T08:07:08;98186.25;;;2.57;56.26
35878;BME280;21982;49.804;24.072;2022-12-20T08:09:37;98032.41;;;1.73;55.78
35878;BME280;21982;49.804;24.072;2022-12-20T08:12:06;98163.19;;;2.51;56.15
35878;BME280;21982;49.804;24.072;2022-12-20T08:14:32;98030.00;;;1.59;56.20
35878;BME280;21982;49.804;24.072;2022-12-20T08:16:58;98163.81;;;2.66;56.70
35878;BME280;21982;49.804;24.072;2022-12-20T08:19:23;98165.22;;;2.70;56.92
35878;BME280;21982;49.804;24.072;2022-12-20T08:21:48;98050.38;;;2.11;56.18
35878;BME280;21982;49.804;24.072;2022-12-20T08:24:14;98132.91;;;2.71;56.64
35878;BME280;21982;49.804;24.072;2022-12-20T08:26:40;98164.41;;;2.92;56.74
35878;BME280;21982;49.804;24.072;2022-12-20T08:29:06;97979.72;;;1.90;56.45
35878;BME280;21982;49.804;24.072;2022-12-20T08:31:32;98097.59;;;2.77;56.22
35878;BME280;21982;49.804;24.072;2022-12-20T08:33:57;98146.16;;;3.13;55.86
35878;BME280;21982;49.804;24.072;2022-12-20T08:36:23;98127.28;;;2.98;56.43
35878;BME280;21982;49.804;24.072;2022-12-20T08:38:48;98092.09;;;2.80;56.37
35878;BME280;21982;49.804;24.072;2022-12-20T08:41:14;98153.19;;;3.12;56.27
35878;BME280;21982;49.804;24.072;2022-12-20T08:43:41;98063.38;;;2.57;56.07
35878;BME280;21982;49.804;24.072;2022-12-20T08:46:08;98133.69;;;3.16;55.90
35878;BME280;21982;49.804;24.072;2022-12-20T08:48:34;98088.41;;;2.93;56.09
35878;BME280;21982;49.804;24.072;2022-12-20T08:51:02;98132.13;;;3.25;56.25
35878;BME280;21982;49.804;24.072;2022-12-20T08:53:28;98096.81;;;3.19;56.14
35878;BME280;21982;49.804;24.072;2022-12-20T08:56:23;98117.06;;;3.49;55.34
35878;BME280;21982;49.804;24.072;2022-12-20T08:58:49;98107.75;;;3.56;55.28
35878;BME280;21982;49.804;24.072;2022-12-20T09:01:16;98109.75;;;3.64;55.58
35878;BME280;21982;49.804;24.072;2022-12-20T09:03:43;98105.47;;;3.63;55.07
35878;BME280;21982;49.804;24.072;2022-12-20T09:06:14;98097.97;;;3.69;55.16
35878;BME280;21982;49.804;24.072;2022-12-20T09:08:40;98098.53;;;3.73;54.97
35878;BME280;21982;49.804;24.072;2022-12-20T09:11:12;98080.09;;;3.75;54.84
35878;BME280;21982;49.804;24.072;2022-12-20T09:13:38;98064.66;;;3.81;55.02
35878;BME280;21982;49.804;24.072;2022-12-20T09:16:05;98084.94;;;4.00;54.43
35878;BME280;21982;49.804;24.072;2022-12-20T09:18:33;98085.13;;;4.08;54.65
35878;BME280;21982;49.804;24.072;2022-12-20T09:21:04;98086.44;;;4.14;54.48
35878;BME280;21982;49.804;24.072;2022-12-20T09:23:31;98065.63;;;4.01;54.63
35878;BME280;21982;49.804;24.072;2022-12-20T09:26:05;98080.38;;;4.23;53.97
35878;BME280;21982;49.804;24.072;2022-12-20T09:28:34;98021.78;;;3.82;54.17
35878;BME280;21982;49.804;24.072;2022-12-20T09:31:01;98012.28;;;3.81;54.16
35878;BME280;21982;49.804;24.072;2022-12-20T09:33:27;98043.84;;;4.00;54.21
35878;BME280;21982;49.804;24.072;2022-12-20T09:35:53;98057.22;;;4.28;53.99
35878;BME280;21982;49.804;24.072;2022-12-20T09:38:19;98015.09;;;4.10;53.73
35878;BME280;21982;49.804;24.072;2022-12-20T09:40:46;98014.34;;;4.29;53.76
35878;BME280;21982;49.804;24.072;2022-12-20T09:43:13;98054.34;;;4.61;53.74
35878;BME280;21982;49.804;24.072;2022-12-20T09:45:40;98017.56;;;4.42;53.58
35878;BME280;21982;49.804;24.072;2022-12-20T09:48:15;97997.13;;;4.36;53.22
35878;BME280;21982;49.804;24.072;2022-12-20T09:50:52;98077.78;;;4.84;53.20
35878;BME280;21982;49.804;24.072;2022-12-20T09:56:24;98071.16;;;4.89;53.36
35878;BME280;21982;49.804;24.072;2022-12-20T10:01:20;98106.53;;;4.95;52.90
35878;BME280;21982;49.804;24.072;2022-12-20T10:03:47;97908.81;;;3.96;52.95
35878;BME280;21982;49.804;24.072;2022-12-20T10:12:08;98082.59;;;5.38;52.33
35878;BME280;21982;49.804;24.072;2022-12-20T10:17:26;98073.59;;;5.31;52.33
35878;BME280;21982;49.804;24.072;2022-12-20T10:20:27;98074.16;;;5.34;52.70
35878;BME280;21982;49.804;24.072;2022-12-20T10:23:01;97990.50;;;4.82;52.67
35878;BME280;21982;49.804;24.072;2022-12-20T10:25:31;98067.50;;;5.30;52.34
35878;BME280;21982;49.804;24.072;2022-12-20T10:28:00;98067.09;;;5.35;52.63
35878;BME280;21982;49.804;24.072;2022-12-20T10:30:28;98067.28;;;5.53;52.54
35878;BME280;21982;49.804;24.072;2022-12-20T10:32:56;97977.78;;;5.64;51.84
35878;BME280;21982;49.804;24.072;2022-12-20T10:40:42;97931.91;;;7.05;49.44
35878;BME280;21982;49.804;24.072;2022-12-20T10:43:22;98033.97;;;7.56;49.34
35878;BME280;21982;49.804;24.072;2022-12-20T10:46:02;98021.91;;;7.54;49.64
35878;BME280;21982;49.804;24.072;2022-12-20T10:48:42;98038.41;;;7.99;49.08
35878;BME280;21982;49.804;24.072;2022-12-20T10:53:49;97989.25;;;7.90;48.59
35878;BME280;21982;49.804;24.072;2022-12-20T10:56:20;98006.94;;;7.54;48.99
35878;BME280;21982;49.804;24.072;2022-12-20T11:01:43;97968.66;;;6.79;49.62
35878;BME280;21982;49.804;24.072;2022-12-20T11:04:28;97888.16;;;6.59;49.90
35878;BME280;21982;49.804;24.072;2022-12-20T15:35:12;97727.59;;;3.32;49.85
35878;BME280;21982;49.804;24.072;2022-12-20T15:37:38;97888.63;;;4.27;50.55
35878;BME280;21982;49.804;24.072;2022-12-20T15:40:03;97832.22;;;3.83;51.04
35878;BME280;21982;49.804;24.072;2022-12-20T15:42:29;97918.72;;;4.33;50.62
35878;BME280;21982;49.804;24.072;2022-12-20T15:44:55;97471.66;;;1.77;50.61
35878;BME280;21982;49.804;24.072;2022-12-20T15:47:21;97794.28;;;3.68;50.45
35878;BME280;21982;49.804;24.072;2022-12-20T15:49:46;97879.00;;;4.37;50.31
35878;BME280;21982;49.804;24.072;2022-12-20T15:52:20;97745.00;;;3.52;50.24
35878;BME280;21982;49.804;24.072;2022-12-20T15:54:46;97892.50;;;4.33;50.70
35878;BME280;21982;49.804;24.072;2022-12-20T15:57:15;97684.22;;;2.99;50.11
35878;BME280;21982;49.804;24.072;2022-12-20T15:59:43;97714.59;;;3.21;50.75
35878;BME280;21982;49.804;24.072;2022-12-20T16:02:22;97876.78;;;4.33;50.30
35878;BME280;21982;49.804;24.072;2022-12-20T16:04:48;97870.97;;;4.29;50.75
35878;BME280;21982;49.804;24.072;2022-12-20T16:07:15;97682.06;;;3.14;49.93
35878;BME280;21982;49.804;24.072;2022-12-20T16:09:41;97755.78;;;3.59;50.49
35878;BME280;21982;49.804;24.072;2022-12-20T16:12:33;97883.50;;;4.26;50.46
35878;BME280;21982;49.804;24.072;2022-12-20T16:14:59;97876.19;;;4.20;50.46
35878;BME280;21982;49.804;24.072;2022-12-20T16:17:25;97875.63;;;4.16;50.22
35878;BME280;21982;49.804;24.072;2022-12-20T16:19:50;97827.41;;;3.88;50.20
35878;BME280;21982;49.804;24.072;2022-12-20T16:22:19;97556.38;;;2.05;50.17
35878;BME280;21982;49.804;24.072;2022-12-20T16:24:46;97822.31;;;3.87;50.30
35878;BME280;21982;49.804;24.072;2022-12-20T16:27:11;97863.50;;;4.15;50.42
35878;BME280;21982;49.804;24.072;2022-12-20T16:29:38;97782.28;;;3.65;50.03
35878;BME280;21982;49.804;24.072;2022-12-20T16:32:23;97699.41;;;3.15;50.14
35878;BME280;21982;49.804;24.072;2022-12-20T16:34:50;97829.78;;;3.91;50.29
35878;BME280;21982;49.804;24.072;2022-12-20T16:37:15;97453.88;;;1.61;50.05
35878;BME280;21982;49.804;24.072;2022-12-20T16:39:41;97583.66;;;2.42;50.00
35878;BME280;21982;49.804;24.072;2022-12-20T16:42:14;97876.47;;;4.26;50.05
35878;BME280;21982;49.804;24.072;2022-12-20T16:44:40;97520.88;;;1.81;49.94
35878;BME280;21982;49.804;24.072;2022-12-20T16:47:12;97874.56;;;4.28;50.31
35878;BME280;21982;49.804;24.072;2022-12-20T16:49:37;97878.13;;;4.27;50.24
35878;BME280;21982;49.804;24.072;2022-12-20T16:52:14;97880.63;;;4.29;50.13
35878;BME280;21982;49.804;24.072;2022-12-20T16:54:40;97831.84;;;3.97;49.90
35878;BME280;21982;49.804;24.072;2022-12-20T16:57:07;97817.31;;;3.74;50.52
35878;BME280;21982;49.804;24.072;2022-12-20T16:59:32;97877.56;;;4.24;49.88
35878;BME280;21982;49.804;24.072;2022-12-20T17:01:58;97878.66;;;4.21;49.84
35878;BME280;21982;49.804;24.072;2022-12-20T17:04:23;97881.16;;;4.23;49.92
35878;BME280;21982;49.804;24.072;2022-12-20T17:06:50;97870.09;;;4.10;50.09
35878;BME280;21982;49.804;24.072;2022-12-20T17:09:17;97801.34;;;3.77;50.07
35878;BME280;21982;49.804;24.072;2022-12-20T17:11:43;97886.41;;;4.23;50.02
35878;BME280;21982;49.804;24.072;2022-12-20T17:14:11;97753.81;;;3.51;50.08
35878;BME280;21982;49.804;24.072;2022-12-20T17:16:36;97866.56;;;4.30;49.74
35878;BME280;21982;49.804;24.072;2022-12-20T17:19:05;97868.22;;;4.31;49.70
35878;BME280;21982;49.804;24.072;2022-12-20T17:21:41;97879.81;;;4.38;49.67
35878;BME280;21982;49.804;24.072;2022-12-20T17:24:17;97878.16;;;4.37;49.97
35878;BME280;21982;49.804;24.072;2022-12-20T17:26:42;97856.22;;;4.28;49.91
35878;BME280;21982;49.804;24.072;2022-12-20T17:29:09;97815.47;;;4.05;49.99
35878;BME280;21982;49.804;24.072;2022-12-20T17:31:38;97849.16;;;4.29;50.02
35878;BME280;21982;49.804;24.072;2022-12-20T17:34:25;97852.75;;;4.28;50.42
35878;BME280;21982;49.804;24.072;2022-12-20T17:36:53;97801.66;;;3.93;50.12
35878;BME280;21982;49.804;24.072;2022-12-20T17:39:20;97848.03;;;4.22;50.45
35878;BME280;21982;49.804;24.072;2022-12-20T17:41:46;97764.38;;;3.70;50.70
35878;BME280;21982;49.804;24.072;2022-12-20T17:44:32;97849.69;;;4.23;50.83
35878;BME280;21982;49.804;24.072;2022-12-20T17:46:57;97702.25;;;3.32;50.34
35878;BME280;21982;49.804;24.072;2022-12-20T17:49:23;97794.88;;;3.91;50.64
35878;BME280;21982;49.804;24.072;2022-12-20T17:51:49;97780.78;;;3.82;50.42
35878;BME280;21982;49.804;24.072;2022-12-20T17:54:24;97708.06;;;3.36;50.63
35878;BME280;21982;49.804;24.072;2022-12-20T17:56:51;97401.53;;;1.32;50.87
35878;BME280;21982;49.804;24.072;2022-12-20T17:59:18;97726.81;;;3.41;50.93
35878;BME280;21982;49.804;24.072;2022-12-20T18:01:45;97502.13;;;2.18;51.06
35878;BME280;21982;49.804;24.072;2022-12-20T18:04:13;97831.50;;;4.12;51.11
35878;BME280;21982;49.804;24.072;2022-12-20T18:06:40;97578.63;;;2.60;51.33
35878;BME280;21982;49.804;24.072;2022-12-20T18:09:12;97824.72;;;4.09;50.81
35878;BME280;21982;49.804;24.072;2022-12-20T18:11:40;97820.72;;;4.05;50.78
35878;BME280;21982;49.804;24.072;2022-12-20T18:14:05;97700.84;;;3.28;51.32
35878;BME280;21982;49.804;24.072;2022-12-20T18:16:34;97711.59;;;3.25;51.38
35878;BME280;21982;49.804;24.072;2022-12-20T18:19:03;97827.19;;;4.01;51.62
35878;BME280;21982;49.804;24.072;2022-12-20T18:21:28;97575.28;;;2.48;50.75
35878;BME280;21982;49.804;24.072;2022-12-20T18:23:54;97550.47;;;2.33;51.48
35878;BME280;21982;49.804;24.072;2022-12-20T18:26:27;97820.72;;;4.05;51.00
35878;BME280;21982;49.804;24.072;2022-12-20T18:28:55;97776.09;;;3.86;51.12
35878;BME280;21982;49.804;24.072;2022-12-20T18:31:23;97818.53;;;4.10;51.20
35878;BME280;21982;49.804;24.072;2022-12-20T18:33:49;97836.88;;;4.10;51.14
35878;BME280;21982;49.804;24.072;2022-12-20T18:36:18;97817.44;;;4.13;51.46
35878;BME280;21982;49.804;24.072;2022-12-20T18:38:45;97684.88;;;3.31;51.52
35878;BME280;21982;49.804;24.072;2022-12-20T18:41:21;97814.38;;;4.17;51.38
35878;BME280;21982;49.804;24.072;2022-12-20T18:43:48;97666.94;;;3.17;51.12
35878;BME280;21982;49.804;24.072;2022-12-20T18:46:16;97825.69;;;4.18;51.45
35878;BME280;21982;49.804;24.072;2022-12-20T18:48:43;97818.78;;;4.17;51.30
35878;BME280;21982;49.804;24.072;2022-12-20T18:51:30;97803.91;;;4.08;51.28
35878;BME280;21982;49.804;24.072;2022-12-20T18:53:58;97697.06;;;3.52;50.90
35878;BME280;21982;49.804;24.072;2022-12-20T18:56:26;97654.19;;;3.33;50.89
35878;BME280;21982;49.804;24.072;2022-12-20T18:58:53;97768.56;;;4.02;51.07
35878;BME280;21982;49.804;24.072;2022-12-20T19:01:20;97765.13;;;4.01;50.78
35878;BME280;21982;49.804;24.072;2022-12-20T19:03:47;97809.16;;;4.27;50.79
35878;BME280;21982;49.804;24.072;2022-12-20T19:06:12;97804.88;;;4.26;51.20
35878;BME280;21982;49.804;24.072;2022-12-20T19:08:39;97808.19;;;4.28;51.19
35878;BME280;21982;49.804;24.072;2022-12-20T19:11:13;97801.97;;;4.29;50.97
35878;BME280;21982;49.804;24.072;2022-12-20T19:13:39;97801.56;;;4.24;51.16
35878;BME280;21982;49.804;24.072;2022-12-20T19:16:09;97799.50;;;4.27;50.73
35878;BME280;21982;49.804;24.072;2022-12-20T19:18:35;97799.75;;;4.24;51.20
35878;BME280;21982;49.804;24.072;2022-12-20T19:21:10;97631.00;;;3.19;50.95
35878;BME280;21982;49.804;24.072;2022-12-20T19:23:37;97793.00;;;4.22;51.18
35878;BME280;21982;49.804;24.072;2022-12-20T19:26:06;97769.13;;;4.06;50.89
35878;BME280;21982;49.804;24.072;2022-12-20T19:28:32;97783.75;;;4.18;50.94
35878;BME280;21982;49.804;24.072;2022-12-20T19:31:04;97778.94;;;4.23;50.40
35878;BME280;21982;49.804;24.072;2022-12-20T19:33:30;97772.16;;;4.20;50.97
35878;BME280;21982;49.804;24.072;2022-12-20T19:35:55;97744.84;;;4.03;50.50
35878;BME280;21982;49.804;24.072;2022-12-20T19:38:20;97704.69;;;3.84;50.54
35878;BME280;21982;49.804;24.072;2022-12-20T19:40:52;97772.03;;;4.31;50.46
35878;BME280;21982;49.804;24.072;2022-12-20T19:43:18;97731.34;;;4.08;50.70
35878;BME280;21982;49.804;24.072;2022-12-20T19:45:46;97766.94;;;4.30;50.75
35878;BME280;21982;49.804;24.072;2022-12-20T19:48:12;97492.19;;;2.52;50.45
35878;BME280;21982;49.804;24.072;2022-12-20T19:50:37;97571.34;;;3.13;50.57
35878;BME280;21982;49.804;24.072;2022-12-20T19:53:02;97708.03;;;3.95;50.54
35878;BME280;21982;49.804;24.072;2022-12-20T19:58:23;97733.41;;;4.04;50.69
35878;BME280;21982;49.804;24.072;2022-12-20T20:00:50;97777.97;;;4.14;50.57
35878;BME280;21982;49.804;24.072;2022-12-20T20:03:18;97555.44;;;2.86;50.32
35878;BME280;21982;49.804;24.072;2022-12-20T20:05:45;97732.19;;;4.09;50.22
35878;BME280;21982;49.804;24.072;2022-12-20T20:08:11;97706.47;;;3.83;50.65
35878;BME280;21982;49.804;24.072;2022-12-20T20:10:36;97668.72;;;3.76;50.11
35878;BME280;21982;49.804;24.072;2022-12-20T20:13:02;97731.06;;;4.21;50.27
35878;BME280;21982;49.804;24.072;2022-12-20T20:15:28;97723.34;;;4.10;50.53
35878;BME280;21982;49.804;24.072;2022-12-20T20:17:53;97673.69;;;3.79;50.36
35878;BME280;21982;49.804;24.072;2022-12-20T20:20:19;97646.38;;;3.72;50.54
35878;BME280;21982;49.804;24.072;2022-12-20T20:22:46;97578.78;;;3.18;50.22
35878;BME280;21982;49.804;24.072;2022-12-20T20:25:11;97693.25;;;3.94;50.74
35878;BME280;21982;49.804;24.072;2022-12-20T20:27:36;97716.44;;;4.18;50.21
35878;BME280;21982;49.804;24.072;2022-12-20T20:30:03;97601.28;;;3.49;50.30
35878;BME280;21982;49.804;24.072;2022-12-20T20:32:29;97660.97;;;3.84;50.42
35878;BME280;21982;49.804;24.072;2022-12-20T20:34:55;97720.03;;;4.27;50.17
35878;BME280;21982;49.804;24.072;2022-12-20T20:37:21;97730.38;;;4.28;50.37
35878;BME280;21982;49.804;24.072;2022-12-20T20:39:46;97726.78;;;4.29;50.41
35878;BME280;21982;49.804;24.072;2022-12-20T20:42:12;97721.41;;;4.31;50.07
35878;BME280;21982;49.804;24.072;2022-12-20T20:44:37;97716.16;;;4.21;50.46
35878;BME280;21982;49.804;24.072;2022-12-20T20:47:03;97720.72;;;4.29;49.96
35878;BME280;21982;49.804;24.072;2022-12-20T20:49:29;97635.91;;;3.72;49.85
35878;BME280;21982;49.804;24.072;2022-12-20T20:51:55;97719.34;;;4.25;50.08
35878;BME280;21982;49.804;24.072;2022-12-20T20:54:20;97295.09;;;1.66;50.12
35878;BME280;21982;49.804;24.072;2022-12-20T20:56:45;97345.44;;;1.87;50.05
35878;BME280;21982;49.804;24.072;2022-12-20T20:59:11;97711.47;;;4.25;49.82
35878;BME280;21982;49.804;24.072;2022-12-20T21:01:36;97721.00;;;4.26;50.09
35878;BME280;21982;49.804;24.072;2022-12-20T21:04:03;97613.84;;;3.65;50.02
35878;BME280;21982;49.804;24.072;2022-12-20T21:06:28;97549.47;;;3.24;50.11